sensor_id;sensor_type;location;lat;lon;timestamp;P1;durP1;ratioP1;P2;durP2;ratioP2
14734;SDS011;7458;49.002;8.472;2023-02-26T00:01:01;7.53;;;3.58;;
14734;SDS011;7458;49.002;8.472;2023-02-26T00:03:35;6.23;;;3.47;;
14734;SDS011;7458;49.002;8.472;2023-02-26T00:06:01;11.25;;;3.83;;
14734;SDS011;7458;49.002;8.472;2023-02-26T00:08:27;4.88;;;3.55;;
14734;SDS011;7458;49.002;8.472;2023-02-26T00:10:55;8.13;;;3.88;;
14734;SDS011;7458;49.002;8.472;2023-02-26T00:13:22;6.30;;;3.55;;
14734;SDS011;7458;49.002;8.472;2023-02-26T00:15:49;4.53;;;3.33;;
14734;SDS011;7458;49.002;8.472;2023-02-26T00:18:23;5.05;;;3.00;;
14734;SDS011;7458;49.002;8.472;2023-02-26T00:20:50;9.88;;;4.40;;
14734;SDS011;7458;49.002;8.472;2023-02-26T00:23:16;4.10;;;3.00;;
14734;SDS011;7458;49.002;8.472;2023-02-26T00:25:42;7.53;;;3.25;;
14734;SDS011;7458;49.002;8.472;2023-02-26T00:28:09;5.65;;;4.20;;
14734;SDS011;7458;49.002;8.472;2023-02-26T00:30:36;5.32;;;3.30;;
14734;SDS011;7458;49.002;8.472;2023-02-26T00:33:03;5.72;;;3.47;;
14734;SDS011;7458;49.002;8.472;2023-02-26T00:35:30;5.25;;;4.13;;
14734;SDS011;7458;49.002;8.472;2023-02-26T00:38:03;7.10;;;3.60;;
14734;SDS011;7458;49.002;8.472;2023-02-26T00:43:08;4.68;;;3.63;;
14734;SDS011;7458;49.002;8.472;2023-02-26T00:45:44;5.90;;;4.07;;
14734;SDS011;7458;49.002;8.472;2023-02-26T00:51:22;5.82;;;3.55;;
14734;SDS011;7458;49.002;8.472;2023-02-26T00:56:42;5.55;;;4.32;;
14734;SDS011;7458;49.002;8.472;2023-02-26T00:59:07;5.10;;;4.10;;
14734;SDS011;7458;49.002;8.472;2023-02-26T01:01:33;3.80;;;3.42;;
14734;SDS011;7458;49.002;8.472;2023-02-26T01:03:59;7.07;;;4.13;;
14734;SDS011;7458;49.002;8.472;2023-02-26T01:06:29;7.45;;;3.83;;
14734;SDS011;7458;49.002;8.472;2023-02-26T01:09:06;4.80;;;3.60;;
14734;SDS011;7458;49.002;8.472;2023-02-26T01:11:54;4.75;;;3.53;;
14734;SDS011;7458;49.002;8.472;2023-02-26T01:14:27;6.30;;;3.80;;
14734;SDS011;7458;49.002;8.472;2023-02-26T01:17:07;5.80;;;3.70;;
14734;SDS011;7458;49.002;8.472;2023-02-26T01:20:19;6.53;;;4.25;;
14734;SDS011;7458;49.002;8.472;2023-02-26T01:22:58;6.18;;;3.55;;
14734;SDS011;7458;49.002;8.472;2023-02-26T01:25:39;7.25;;;4.95;;
14734;SDS011;7458;49.002;8.472;2023-02-26T01:28:30;14.68;;;3.92;;
14734;SDS011;7458;49.002;8.472;2023-02-26T01:31:00;7.45;;;4.57;;
14734;SDS011;7458;49.002;8.472;2023-02-26T01:33:46;6.65;;;4.07;;
14734;SDS011;7458;49.002;8.472;2023-02-26T01:36:20;5.45;;;3.47;;
14734;SDS011;7458;49.002;8.472;2023-02-26T01:39:38;5.13;;;3.92;;
14734;SDS011;7458;49.002;8.472;2023-02-26T01:41:54;6.53;;;4.80;;
14734;SDS011;7458;49.002;8.472;2023-02-26T01:44:57;7.03;;;4.90;;
14734;SDS011;7458;49.002;8.472;2023-02-26T01:50:21;6.05;;;3.65;;
14734;SDS011;7458;49.002;8.472;2023-02-26T01:55:50;13.32;;;5.60;;
14734;SDS011;7458;49.002;8.472;2023-02-26T01:58:22;6.88;;;4.68;;
14734;SDS011;7458;49.002;8.472;2023-02-26T02:00:51;5.60;;;4.88;;
14734;SDS011;7458;49.002;8.472;2023-02-26T02:03:18;5.65;;;4.05;;
14734;SDS011;7458;49.002;8.472;2023-02-26T02:05:48;6.63;;;4.28;;
14734;SDS011;7458;49.002;8.472;2023-02-26T02:08:20;6.95;;;4.85;;
14734;SDS011;7458;49.002;8.472;2023-02-26T02:10:46;6.78;;;4.50;;
14734;SDS011;7458;49.002;8.472;2023-02-26T02:21:53;6.18;;;4.68;;
14734;SDS011;7458;49.002;8.472;2023-02-26T02:24:43;8.23;;;4.72;;
14734;SDS011;7458;49.002;8.472;2023-02-26T02:30:06;8.85;;;3.95;;
14734;SDS011;7458;49.002;8.472;2023-02-26T02:32:38;10.18;;;5.38;;
14734;SDS011;7458;49.002;8.472;2023-02-26T02:35:21;6.68;;;3.95;;
14734;SDS011;7458;49.002;8.472;2023-02-26T02:38:07;8.77;;;3.67;;
14734;SDS011;7458;49.002;8.472;2023-02-26T02:40:54;5.07;;;3.92;;
14734;SDS011;7458;49.002;8.472;2023-02-26T02:43:32;7.93;;;3.83;;
14734;SDS011;7458;49.002;8.472;2023-02-26T02:46:05;11.23;;;4.55;;
14734;SDS011;7458;49.002;8.472;2023-02-26T02:48:59;10.55;;;5.07;;
14734;SDS011;7458;49.002;8.472;2023-02-26T02:51:30;7.63;;;4.17;;
14734;SDS011;7458;49.002;8.472;2023-02-26T02:54:04;8.10;;;5.72;;
14734;SDS011;7458;49.002;8.472;2023-02-26T02:56:43;9.88;;;6.68;;
14734;SDS011;7458;49.002;8.472;2023-02-26T02:59:31;11.38;;;6.22;;
14734;SDS011;7458;49.002;8.472;2023-02-26T03:02:16;6.60;;;4.10;;
14734;SDS011;7458;49.002;8.472;2023-02-26T03:05:00;7.13;;;4.57;;
14734;SDS011;7458;49.002;8.472;2023-02-26T03:07:27;8.15;;;6.05;;
14734;SDS011;7458;49.002;8.472;2023-02-26T03:09:57;8.05;;;5.05;;
14734;SDS011;7458;49.002;8.472;2023-02-26T03:12:24;7.45;;;3.60;;
14734;SDS011;7458;49.002;8.472;2023-02-26T03:14:55;5.32;;;4.72;;
14734;SDS011;7458;49.002;8.472;2023-02-26T03:17:25;6.20;;;5.00;;
14734;SDS011;7458;49.002;8.472;2023-02-26T03:20:31;7.03;;;4.05;;
14734;SDS011;7458;49.002;8.472;2023-02-26T03:29:19;6.38;;;4.60;;
14734;SDS011;7458;49.002;8.472;2023-02-26T03:32:25;5.70;;;4.47;;
14734;SDS011;7458;49.002;8.472;2023-02-26T03:35:16;10.30;;;3.70;;
14734;SDS011;7458;49.002;8.472;2023-02-26T03:37:51;4.00;;;3.33;;
14734;SDS011;7458;49.002;8.472;2023-02-26T03:40:26;6.38;;;4.45;;
14734;SDS011;7458;49.002;8.472;2023-02-26T03:43:08;7.70;;;5.63;;
14734;SDS011;7458;49.002;8.472;2023-02-26T03:45:55;4.88;;;3.90;;
14734;SDS011;7458;49.002;8.472;2023-02-26T03:48:28;7.75;;;4.18;;
14734;SDS011;7458;49.002;8.472;2023-02-26T03:50:59;8.07;;;4.05;;
14734;SDS011;7458;49.002;8.472;2023-02-26T03:53:32;6.28;;;5.18;;
14734;SDS011;7458;49.002;8.472;2023-02-26T03:56:10;7.40;;;5.45;;
14734;SDS011;7458;49.002;8.472;2023-02-26T03:58:48;8.05;;;4.25;;
14734;SDS011;7458;49.002;8.472;2023-02-26T04:01:26;5.20;;;4.13;;
14734;SDS011;7458;49.002;8.472;2023-02-26T04:07:06;6.60;;;5.47;;
14734;SDS011;7458;49.002;8.472;2023-02-26T04:09:34;10.02;;;5.32;;
14734;SDS011;7458;49.002;8.472;2023-02-26T04:12:00;5.93;;;5.13;;
14734;SDS011;7458;49.002;8.472;2023-02-26T04:14:26;12.13;;;4.60;;
14734;SDS011;7458;49.002;8.472;2023-02-26T04:16:51;9.38;;;5.07;;
14734;SDS011;7458;49.002;8.472;2023-02-26T04:19:17;7.00;;;4.60;;
14734;SDS011;7458;49.002;8.472;2023-02-26T04:21:43;8.20;;;4.88;;
14734;SDS011;7458;49.002;8.472;2023-02-26T04:24:09;4.90;;;3.58;;
14734;SDS011;7458;49.002;8.472;2023-02-26T04:26:35;6.30;;;3.85;;
14734;SDS011;7458;49.002;8.472;2023-02-26T04:29:01;5.65;;;4.55;;
14734;SDS011;7458;49.002;8.472;2023-02-26T04:31:27;6.82;;;4.00;;
14734;SDS011;7458;49.002;8.472;2023-02-26T04:33:52;9.30;;;5.38;;
14734;SDS011;7458;49.002;8.472;2023-02-26T04:36:18;8.88;;;4.03;;
14734;SDS011;7458;49.002;8.472;2023-02-26T04:38:44;6.22;;;3.92;;
14734;SDS011;7458;49.002;8.472;2023-02-26T04:41:10;10.25;;;5.57;;
14734;SDS011;7458;49.002;8.472;2023-02-26T04:43:35;7.25;;;4.80;;
14734;SDS011;7458;49.002;8.472;2023-02-26T04:46:02;8.68;;;5.93;;
14734;SDS011;7458;49.002;8.472;2023-02-26T04:48:28;6.30;;;5.10;;
14734;SDS011;7458;49.002;8.472;2023-02-26T04:50:53;6.45;;;4.25;;
14734;SDS011;7458;49.002;8.472;2023-02-26T04:53:19;8.73;;;4.28;;
14734;SDS011;7458;49.002;8.472;2023-02-26T04:55:46;7.07;;;4.40;;
14734;SDS011;7458;49.002;8.472;2023-02-26T04:58:13;6.00;;;4.72;;
14734;SDS011;7458;49.002;8.472;2023-02-26T05:00:38;7.40;;;4.75;;
14734;SDS011;7458;49.002;8.472;2023-02-26T05:03:05;12.60;;;5.00;;
14734;SDS011;7458;49.002;8.472;2023-02-26T05:05:31;5.43;;;4.25;;
14734;SDS011;7458;49.002;8.472;2023-02-26T05:07:57;8.07;;;4.93;;
14734;SDS011;7458;49.002;8.472;2023-02-26T05:10:23;5.10;;;4.53;;
14734;SDS011;7458;49.002;8.472;2023-02-26T05:12:49;8.73;;;6.00;;
14734;SDS011;7458;49.002;8.472;2023-02-26T05:15:16;7.60;;;5.80;;
14734;SDS011;7458;49.002;8.472;2023-02-26T05:17:42;8.40;;;4.20;;
14734;SDS011;7458;49.002;8.472;2023-02-26T05:20:08;11.25;;;6.43;;
14734;SDS011;7458;49.002;8.472;2023-02-26T05:22:38;8.52;;;4.60;;
14734;SDS011;7458;49.002;8.472;2023-02-26T05:25:04;7.50;;;5.07;;
14734;SDS011;7458;49.002;8.472;2023-02-26T05:27:32;10.48;;;4.57;;
14734;SDS011;7458;49.002;8.472;2023-02-26T05:29:58;6.07;;;4.57;;
14734;SDS011;7458;49.002;8.472;2023-02-26T05:32:24;8.35;;;5.18;;
14734;SDS011;7458;49.002;8.472;2023-02-26T05:34:50;10.50;;;5.65;;
14734;SDS011;7458;49.002;8.472;2023-02-26T05:37:15;8.55;;;5.88;;
14734;SDS011;7458;49.002;8.472;2023-02-26T05:39:41;5.93;;;3.35;;
14734;SDS011;7458;49.002;8.472;2023-02-26T05:42:07;5.93;;;4.85;;
14734;SDS011;7458;49.002;8.472;2023-02-26T05:44:33;7.68;;;4.82;;
14734;SDS011;7458;49.002;8.472;2023-02-26T05:46:59;8.70;;;4.93;;
14734;SDS011;7458;49.002;8.472;2023-02-26T05:49:26;6.95;;;4.55;;
14734;SDS011;7458;49.002;8.472;2023-02-26T05:51:52;5.85;;;3.80;;
14734;SDS011;7458;49.002;8.472;2023-02-26T05:54:18;8.00;;;4.38;;
14734;SDS011;7458;49.002;8.472;2023-02-26T05:56:43;6.90;;;3.95;;
14734;SDS011;7458;49.002;8.472;2023-02-26T05:59:09;6.05;;;3.78;;
14734;SDS011;7458;49.002;8.472;2023-02-26T06:01:35;12.18;;;5.45;;
14734;SDS011;7458;49.002;8.472;2023-02-26T06:04:02;5.82;;;5.18;;
14734;SDS011;7458;49.002;8.472;2023-02-26T06:06:30;10.30;;;4.78;;
14734;SDS011;7458;49.002;8.472;2023-02-26T06:08:56;5.82;;;4.15;;
14734;SDS011;7458;49.002;8.472;2023-02-26T06:11:22;5.53;;;4.60;;
14734;SDS011;7458;49.002;8.472;2023-02-26T06:13:48;7.10;;;4.82;;
14734;SDS011;7458;49.002;8.472;2023-02-26T06:16:14;4.68;;;4.18;;
14734;SDS011;7458;49.002;8.472;2023-02-26T06:18:39;5.85;;;4.97;;
14734;SDS011;7458;49.002;8.472;2023-02-26T06:21:05;9.15;;;4.50;;
14734;SDS011;7458;49.002;8.472;2023-02-26T06:23:31;6.25;;;5.07;;
14734;SDS011;7458;49.002;8.472;2023-02-26T06:25:57;11.25;;;4.25;;
14734;SDS011;7458;49.002;8.472;2023-02-26T06:28:24;8.93;;;4.38;;
14734;SDS011;7458;49.002;8.472;2023-02-26T06:30:53;6.93;;;4.38;;
14734;SDS011;7458;49.002;8.472;2023-02-26T06:33:19;9.00;;;4.38;;
14734;SDS011;7458;49.002;8.472;2023-02-26T06:35:46;7.07;;;5.35;;
14734;SDS011;7458;49.002;8.472;2023-02-26T06:38:12;9.82;;;4.70;;
14734;SDS011;7458;49.002;8.472;2023-02-26T06:40:39;9.23;;;4.75;;
14734;SDS011;7458;49.002;8.472;2023-02-26T06:43:04;7.28;;;5.63;;
14734;SDS011;7458;49.002;8.472;2023-02-26T06:45:30;7.90;;;3.88;;
14734;SDS011;7458;49.002;8.472;2023-02-26T06:47:56;10.50;;;4.03;;
14734;SDS011;7458;49.002;8.472;2023-02-26T06:50:22;7.88;;;4.85;;
14734;SDS011;7458;49.002;8.472;2023-02-26T06:52:47;8.52;;;4.85;;
14734;SDS011;7458;49.002;8.472;2023-02-26T06:55:13;7.03;;;6.07;;
14734;SDS011;7458;49.002;8.472;2023-02-26T06:57:39;10.23;;;4.65;;
14734;SDS011;7458;49.002;8.472;2023-02-26T07:00:05;20.05;;;6.07;;
14734;SDS011;7458;49.002;8.472;2023-02-26T07:02:32;8.07;;;6.18;;
14734;SDS011;7458;49.002;8.472;2023-02-26T07:04:58;8.45;;;5.90;;
14734;SDS011;7458;49.002;8.472;2023-02-26T07:07:24;10.82;;;5.88;;
14734;SDS011;7458;49.002;8.472;2023-02-26T07:09:49;12.43;;;4.68;;
14734;SDS011;7458;49.002;8.472;2023-02-26T07:12:15;10.75;;;4.63;;
14734;SDS011;7458;49.002;8.472;2023-02-26T07:14:41;6.07;;;4.53;;
14734;SDS011;7458;49.002;8.472;2023-02-26T07:17:07;6.18;;;4.93;;
14734;SDS011;7458;49.002;8.472;2023-02-26T07:19:34;7.70;;;4.47;;
14734;SDS011;7458;49.002;8.472;2023-02-26T07:22:00;8.70;;;5.20;;
14734;SDS011;7458;49.002;8.472;2023-02-26T07:24:25;4.55;;;4.03;;
14734;SDS011;7458;49.002;8.472;2023-02-26T07:26:51;6.93;;;5.63;;
14734;SDS011;7458;49.002;8.472;2023-02-26T07:29:17;7.05;;;4.13;;
14734;SDS011;7458;49.002;8.472;2023-02-26T07:31:43;7.28;;;4.30;;
14734;SDS011;7458;49.002;8.472;2023-02-26T07:34:08;8.60;;;4.90;;
14734;SDS011;7458;49.002;8.472;2023-02-26T07:36:34;5.68;;;3.85;;
14734;SDS011;7458;49.002;8.472;2023-02-26T07:39:00;10.65;;;5.30;;
14734;SDS011;7458;49.002;8.472;2023-02-26T07:41:26;5.97;;;4.00;;
14734;SDS011;7458;49.002;8.472;2023-02-26T07:43:52;5.78;;;4.45;;
14734;SDS011;7458;49.002;8.472;2023-02-26T07:46:17;7.15;;;5.32;;
14734;SDS011;7458;49.002;8.472;2023-02-26T07:48:43;14.15;;;6.05;;
14734;SDS011;7458;49.002;8.472;2023-02-26T07:51:09;7.55;;;6.20;;
14734;SDS011;7458;49.002;8.472;2023-02-26T07:53:35;7.95;;;5.55;;
14734;SDS011;7458;49.002;8.472;2023-02-26T07:56:01;7.75;;;5.32;;
14734;SDS011;7458;49.002;8.472;2023-02-26T07:58:27;10.32;;;5.55;;
14734;SDS011;7458;49.002;8.472;2023-02-26T08:00:53;8.80;;;5.65;;
14734;SDS011;7458;49.002;8.472;2023-02-26T08:03:19;7.88;;;5.63;;
14734;SDS011;7458;49.002;8.472;2023-02-26T08:05:45;7.75;;;5.85;;
14734;SDS011;7458;49.002;8.472;2023-02-26T08:08:11;8.18;;;4.95;;
14734;SDS011;7458;49.002;8.472;2023-02-26T08:10:37;6.05;;;4.53;;
14734;SDS011;7458;49.002;8.472;2023-02-26T08:13:05;8.95;;;5.30;;
14734;SDS011;7458;49.002;8.472;2023-02-26T08:15:31;8.80;;;5.68;;
14734;SDS011;7458;49.002;8.472;2023-02-26T08:17:57;8.43;;;5.20;;
14734;SDS011;7458;49.002;8.472;2023-02-26T08:20:23;7.47;;;5.00;;
14734;SDS011;7458;49.002;8.472;2023-02-26T08:22:49;9.43;;;5.10;;
14734;SDS011;7458;49.002;8.472;2023-02-26T08:25:16;8.07;;;5.03;;
14734;SDS011;7458;49.002;8.472;2023-02-26T08:27:42;6.07;;;5.25;;
14734;SDS011;7458;49.002;8.472;2023-02-26T08:30:08;7.65;;;5.40;;
14734;SDS011;7458;49.002;8.472;2023-02-26T08:32:36;6.75;;;4.00;;
14734;SDS011;7458;49.002;8.472;2023-02-26T08:35:03;5.82;;;4.28;;
14734;SDS011;7458;49.002;8.472;2023-02-26T08:37:30;11.15;;;5.00;;
14734;SDS011;7458;49.002;8.472;2023-02-26T08:39:56;6.95;;;4.05;;
14734;SDS011;7458;49.002;8.472;2023-02-26T08:42:22;10.48;;;5.05;;
14734;SDS011;7458;49.002;8.472;2023-02-26T08:44:47;6.50;;;4.10;;
14734;SDS011;7458;49.002;8.472;2023-02-26T08:47:13;6.95;;;4.78;;
14734;SDS011;7458;49.002;8.472;2023-02-26T08:49:39;7.60;;;4.32;;
14734;SDS011;7458;49.002;8.472;2023-02-26T08:52:05;6.82;;;3.60;;
14734;SDS011;7458;49.002;8.472;2023-02-26T08:54:31;10.68;;;5.32;;
14734;SDS011;7458;49.002;8.472;2023-02-26T08:56:56;5.65;;;4.05;;
14734;SDS011;7458;49.002;8.472;2023-02-26T08:59:23;5.53;;;3.97;;
14734;SDS011;7458;49.002;8.472;2023-02-26T09:01:49;3.80;;;2.83;;
14734;SDS011;7458;49.002;8.472;2023-02-26T09:04:15;7.15;;;3.72;;
14734;SDS011;7458;49.002;8.472;2023-02-26T09:06:41;5.75;;;4.15;;
14734;SDS011;7458;49.002;8.472;2023-02-26T09:09:07;6.53;;;3.88;;
14734;SDS011;7458;49.002;8.472;2023-02-26T09:11:34;6.32;;;3.38;;
14734;SDS011;7458;49.002;8.472;2023-02-26T09:14:01;7.07;;;3.88;;
14734;SDS011;7458;49.002;8.472;2023-02-26T09:16:28;5.50;;;3.05;;
14734;SDS011;7458;49.002;8.472;2023-02-26T09:18:56;6.15;;;4.07;;
14734;SDS011;7458;49.002;8.472;2023-02-26T09:21:22;8.63;;;3.75;;
14734;SDS011;7458;49.002;8.472;2023-02-26T09:23:49;4.68;;;3.65;;
14734;SDS011;7458;49.002;8.472;2023-02-26T09:26:15;4.55;;;3.35;;
14734;SDS011;7458;49.002;8.472;2023-02-26T09:28:40;5.15;;;3.33;;
14734;SDS011;7458;49.002;8.472;2023-02-26T09:31:06;5.43;;;3.17;;
14734;SDS011;7458;49.002;8.472;2023-02-26T09:33:32;4.45;;;3.20;;
14734;SDS011;7458;49.002;8.472;2023-02-26T09:35:58;5.45;;;2.92;;
14734;SDS011;7458;49.002;8.472;2023-02-26T09:38:24;9.23;;;2.88;;
14734;SDS011;7458;49.002;8.472;2023-02-26T09:40:54;4.30;;;3.08;;
14734;SDS011;7458;49.002;8.472;2023-02-26T09:44:19;5.00;;;3.50;;
14734;SDS011;7458;49.002;8.472;2023-02-26T09:52:25;4.68;;;3.22;;
14734;SDS011;7458;49.002;8.472;2023-02-26T09:55:16;4.85;;;3.95;;
14734;SDS011;7458;49.002;8.472;2023-02-26T09:58:02;5.72;;;2.80;;
14734;SDS011;7458;49.002;8.472;2023-02-26T10:03:26;3.70;;;2.97;;
14734;SDS011;7458;49.002;8.472;2023-02-26T10:12:16;8.10;;;2.70;;
14734;SDS011;7458;49.002;8.472;2023-02-26T10:14:48;4.82;;;2.65;;
14734;SDS011;7458;49.002;8.472;2023-02-26T10:35:11;7.15;;;3.28;;
14734;SDS011;7458;49.002;8.472;2023-02-26T10:43:39;4.28;;;2.75;;
14734;SDS011;7458;49.002;8.472;2023-02-26T10:46:24;4.78;;;2.17;;
14734;SDS011;7458;49.002;8.472;2023-02-26T10:51:55;5.43;;;2.63;;
14734;SDS011;7458;49.002;8.472;2023-02-26T10:54:34;5.85;;;2.15;;
14734;SDS011;7458;49.002;8.472;2023-02-26T10:57:28;5.63;;;2.60;;
14734;SDS011;7458;49.002;8.472;2023-02-26T10:59:59;3.63;;;2.45;;
14734;SDS011;7458;49.002;8.472;2023-02-26T11:02:31;3.13;;;1.80;;
14734;SDS011;7458;49.002;8.472;2023-02-26T11:05:01;2.40;;;2.10;;
14734;SDS011;7458;49.002;8.472;2023-02-26T11:07:29;3.58;;;2.90;;
14734;SDS011;7458;49.002;8.472;2023-02-26T11:09:57;5.10;;;2.17;;
14734;SDS011;7458;49.002;8.472;2023-02-26T11:12:24;7.47;;;2.95;;
14734;SDS011;7458;49.002;8.472;2023-02-26T11:14:50;2.75;;;1.98;;
14734;SDS011;7458;49.002;8.472;2023-02-26T11:17:20;3.88;;;2.40;;
14734;SDS011;7458;49.002;8.472;2023-02-26T11:20:03;3.15;;;2.55;;
14734;SDS011;7458;49.002;8.472;2023-02-26T11:22:46;2.53;;;2.22;;
14734;SDS011;7458;49.002;8.472;2023-02-26T11:25:17;4.13;;;2.35;;
14734;SDS011;7458;49.002;8.472;2023-02-26T11:27:49;2.85;;;2.50;;
14734;SDS011;7458;49.002;8.472;2023-02-26T11:30:25;3.08;;;2.17;;
14734;SDS011;7458;49.002;8.472;2023-02-26T11:32:55;4.18;;;2.40;;
14734;SDS011;7458;49.002;8.472;2023-02-26T11:35:27;2.55;;;1.95;;
14734;SDS011;7458;49.002;8.472;2023-02-26T11:38:00;2.60;;;2.40;;
14734;SDS011;7458;49.002;8.472;2023-02-26T11:40:31;2.70;;;2.22;;
14734;SDS011;7458;49.002;8.472;2023-02-26T11:43:16;4.05;;;1.80;;
14734;SDS011;7458;49.002;8.472;2023-02-26T11:45:51;1.90;;;1.75;;
14734;SDS011;7458;49.002;8.472;2023-02-26T11:48:24;3.08;;;2.20;;
14734;SDS011;7458;49.002;8.472;2023-02-26T11:50:59;2.25;;;1.92;;
14734;SDS011;7458;49.002;8.472;2023-02-26T11:53:30;2.13;;;1.90;;
14734;SDS011;7458;49.002;8.472;2023-02-26T11:56:12;5.20;;;2.20;;
14734;SDS011;7458;49.002;8.472;2023-02-26T11:58:44;3.95;;;2.58;;
14734;SDS011;7458;49.002;8.472;2023-02-26T12:01:11;3.25;;;2.25;;
14734;SDS011;7458;49.002;8.472;2023-02-26T12:03:42;3.28;;;2.38;;
14734;SDS011;7458;49.002;8.472;2023-02-26T12:06:14;3.47;;;2.30;;
14734;SDS011;7458;49.002;8.472;2023-02-26T12:08:44;3.75;;;2.50;;
14734;SDS011;7458;49.002;8.472;2023-02-26T12:31:56;2.28;;;2.00;;
14734;SDS011;7458;49.002;8.472;2023-02-26T12:40:32;3.28;;;2.00;;
14734;SDS011;7458;49.002;8.472;2023-02-26T12:58:30;6.60;;;2.25;;
14734;SDS011;7458;49.002;8.472;2023-02-26T13:08:02;3.25;;;1.88;;
14734;SDS011;7458;49.002;8.472;2023-02-26T13:21:45;1.92;;;1.60;;
14734;SDS011;7458;49.002;8.472;2023-02-26T13:27:11;1.85;;;1.63;;
14734;SDS011;7458;49.002;8.472;2023-02-26T13:29:45;2.35;;;1.65;;
14734;SDS011;7458;49.002;8.472;2023-02-26T13:32:23;3.25;;;2.00;;
14734;SDS011;7458;49.002;8.472;2023-02-26T13:35:36;2.95;;;1.83;;
14734;SDS011;7458;49.002;8.472;2023-02-26T13:37:47;2.13;;;1.63;;
14734;SDS011;7458;49.002;8.472;2023-02-26T13:46:04;2.97;;;2.10;;
14734;SDS011;7458;49.002;8.472;2023-02-26T13:51:56;5.50;;;1.90;;
14734;SDS011;7458;49.002;8.472;2023-02-26T13:54:32;2.53;;;2.03;;
14734;SDS011;7458;49.002;8.472;2023-02-26T13:57:22;3.08;;;1.80;;
14734;SDS011;7458;49.002;8.472;2023-02-26T13:59:54;2.75;;;2.05;;
14734;SDS011;7458;49.002;8.472;2023-02-26T14:02:47;2.95;;;2.03;;
14734;SDS011;7458;49.002;8.472;2023-02-26T14:05:34;4.28;;;2.47;;
14734;SDS011;7458;49.002;8.472;2023-02-26T14:10:45;2.10;;;1.60;;
14734;SDS011;7458;49.002;8.472;2023-02-26T14:16:26;1.63;;;1.40;;
14734;SDS011;7458;49.002;8.472;2023-02-26T14:18:59;2.15;;;1.50;;
14734;SDS011;7458;49.002;8.472;2023-02-26T14:21:37;2.05;;;1.70;;
14734;SDS011;7458;49.002;8.472;2023-02-26T14:24:13;1.38;;;1.27;;
14734;SDS011;7458;49.002;8.472;2023-02-26T14:26:47;3.63;;;2.53;;
14734;SDS011;7458;49.002;8.472;2023-02-26T14:29:42;3.60;;;2.25;;
14734;SDS011;7458;49.002;8.472;2023-02-26T14:32:31;2.80;;;1.80;;
14734;SDS011;7458;49.002;8.472;2023-02-26T14:35:23;2.55;;;1.48;;
14734;SDS011;7458;49.002;8.472;2023-02-26T14:38:04;1.55;;;1.30;;
14734;SDS011;7458;49.002;8.472;2023-02-26T14:40:39;3.35;;;1.58;;
14734;SDS011;7458;49.002;8.472;2023-02-26T14:43:33;1.85;;;1.50;;
14734;SDS011;7458;49.002;8.472;2023-02-26T14:46:07;1.88;;;1.50;;
14734;SDS011;7458;49.002;8.472;2023-02-26T14:48:35;1.70;;;1.58;;
14734;SDS011;7458;49.002;8.472;2023-02-26T14:54:19;1.65;;;1.42;;
14734;SDS011;7458;49.002;8.472;2023-02-26T15:06:02;2.42;;;1.65;;
14734;SDS011;7458;49.002;8.472;2023-02-26T15:28:34;2.63;;;1.15;;
14734;SDS011;7458;49.002;8.472;2023-02-26T15:31:05;1.52;;;1.40;;
14734;SDS011;7458;49.002;8.472;2023-02-26T15:33:34;5.30;;;1.88;;
14734;SDS011;7458;49.002;8.472;2023-02-26T15:36:04;2.25;;;1.63;;
14734;SDS011;7458;49.002;8.472;2023-02-26T15:38:40;1.65;;;1.38;;
14734;SDS011;7458;49.002;8.472;2023-02-26T15:41:19;2.08;;;1.48;;
14734;SDS011;7458;49.002;8.472;2023-02-26T15:43:50;3.67;;;1.92;;
14734;SDS011;7458;49.002;8.472;2023-02-26T15:46:22;2.15;;;1.58;;
14734;SDS011;7458;49.002;8.472;2023-02-26T15:48:59;2.38;;;1.67;;
14734;SDS011;7458;49.002;8.472;2023-02-26T15:51:49;2.25;;;1.42;;
14734;SDS011;7458;49.002;8.472;2023-02-26T15:54:18;2.15;;;1.38;;
14734;SDS011;7458;49.002;8.472;2023-02-26T15:56:47;3.35;;;1.52;;
14734;SDS011;7458;49.002;8.472;2023-02-26T16:01:44;1.52;;;1.13;;
14734;SDS011;7458;49.002;8.472;2023-02-26T16:04:15;3.72;;;1.55;;
14734;SDS011;7458;49.002;8.472;2023-02-26T16:06:47;2.50;;;1.50;;
14734;SDS011;7458;49.002;8.472;2023-02-26T16:11:50;1.40;;;1.13;;
14734;SDS011;7458;49.002;8.472;2023-02-26T16:14:35;2.72;;;1.98;;
14734;SDS011;7458;49.002;8.472;2023-02-26T16:17:06;3.03;;;2.00;;
14734;SDS011;7458;49.002;8.472;2023-02-26T16:19:39;2.92;;;1.20;;
14734;SDS011;7458;49.002;8.472;2023-02-26T16:22:20;2.33;;;1.83;;
14734;SDS011;7458;49.002;8.472;2023-02-26T16:25:01;2.42;;;1.70;;
14734;SDS011;7458;49.002;8.472;2023-02-26T16:27:42;3.35;;;1.92;;
14734;SDS011;7458;49.002;8.472;2023-02-26T16:30:16;2.47;;;1.88;;
14734;SDS011;7458;49.002;8.472;2023-02-26T16:32:47;2.70;;;2.30;;
14734;SDS011;7458;49.002;8.472;2023-02-26T16:35:19;2.10;;;1.45;;
14734;SDS011;7458;49.002;8.472;2023-02-26T16:37:49;4.00;;;2.20;;
14734;SDS011;7458;49.002;8.472;2023-02-26T16:40:25;2.42;;;1.48;;
14734;SDS011;7458;49.002;8.472;2023-02-26T16:43:01;2.30;;;1.60;;
14734;SDS011;7458;49.002;8.472;2023-02-26T16:48:04;3.83;;;2.17;;
14734;SDS011;7458;49.002;8.472;2023-02-26T16:50:42;3.55;;;2.00;;
14734;SDS011;7458;49.002;8.472;2023-02-26T16:53:15;1.95;;;1.48;;
14734;SDS011;7458;49.002;8.472;2023-02-26T16:55:47;1.77;;;1.58;;
14734;SDS011;7458;49.002;8.472;2023-02-26T16:58:20;3.25;;;1.50;;
14734;SDS011;7458;49.002;8.472;2023-02-26T17:00:53;3.67;;;2.95;;
14734;SDS011;7458;49.002;8.472;2023-02-26T17:03:32;10.07;;;5.65;;
14734;SDS011;7458;49.002;8.472;2023-02-26T17:06:01;7.10;;;5.45;;
14734;SDS011;7458;49.002;8.472;2023-02-26T17:08:33;1.63;;;1.27;;
14734;SDS011;7458;49.002;8.472;2023-02-26T17:11:19;2.85;;;2.10;;
14734;SDS011;7458;49.002;8.472;2023-02-26T17:16:37;3.33;;;2.03;;
14734;SDS011;7458;49.002;8.472;2023-02-26T17:19:03;3.92;;;2.22;;
14734;SDS011;7458;49.002;8.472;2023-02-26T17:21:29;4.05;;;2.22;;
14734;SDS011;7458;49.002;8.472;2023-02-26T17:23:56;2.78;;;1.98;;
14734;SDS011;7458;49.002;8.472;2023-02-26T17:26:22;2.78;;;1.65;;
14734;SDS011;7458;49.002;8.472;2023-02-26T17:28:49;2.55;;;2.10;;
14734;SDS011;7458;49.002;8.472;2023-02-26T17:31:15;3.08;;;2.35;;
14734;SDS011;7458;49.002;8.472;2023-02-26T17:33:41;2.00;;;1.80;;
14734;SDS011;7458;49.002;8.472;2023-02-26T17:36:12;1.67;;;1.42;;
14734;SDS011;7458;49.002;8.472;2023-02-26T17:38:42;2.42;;;1.98;;
14734;SDS011;7458;49.002;8.472;2023-02-26T17:41:11;3.17;;;1.85;;
14734;SDS011;7458;49.002;8.472;2023-02-26T17:43:41;4.32;;;2.42;;
14734;SDS011;7458;49.002;8.472;2023-02-26T17:46:09;3.60;;;2.17;;
14734;SDS011;7458;49.002;8.472;2023-02-26T17:48:36;2.28;;;1.48;;
14734;SDS011;7458;49.002;8.472;2023-02-26T17:51:02;2.47;;;1.88;;
14734;SDS011;7458;49.002;8.472;2023-02-26T17:53:28;4.97;;;3.13;;
14734;SDS011;7458;49.002;8.472;2023-02-26T17:56:06;3.70;;;1.90;;
14734;SDS011;7458;49.002;8.472;2023-02-26T17:58:36;1.80;;;1.65;;
14734;SDS011;7458;49.002;8.472;2023-02-26T18:01:02;6.72;;;2.10;;
14734;SDS011;7458;49.002;8.472;2023-02-26T18:03:28;3.50;;;1.60;;
14734;SDS011;7458;49.002;8.472;2023-02-26T18:05:54;1.90;;;1.52;;
14734;SDS011;7458;49.002;8.472;2023-02-26T18:08:23;2.42;;;1.17;;
14734;SDS011;7458;49.002;8.472;2023-02-26T18:10:51;2.50;;;1.55;;
14734;SDS011;7458;49.002;8.472;2023-02-26T18:13:18;2.42;;;1.33;;
14734;SDS011;7458;49.002;8.472;2023-02-26T18:15:44;3.42;;;1.55;;
14734;SDS011;7458;49.002;8.472;2023-02-26T18:18:11;1.77;;;1.45;;
14734;SDS011;7458;49.002;8.472;2023-02-26T18:20:38;1.65;;;1.30;;
14734;SDS011;7458;49.002;8.472;2023-02-26T18:23:05;2.30;;;1.35;;
14734;SDS011;7458;49.002;8.472;2023-02-26T18:25:32;2.28;;;1.55;;
14734;SDS011;7458;49.002;8.472;2023-02-26T18:28:01;1.45;;;1.17;;
14734;SDS011;7458;49.002;8.472;2023-02-26T18:30:33;5.25;;;2.17;;
14734;SDS011;7458;49.002;8.472;2023-02-26T18:33:02;4.27;;;2.07;;
14734;SDS011;7458;49.002;8.472;2023-02-26T18:35:28;4.50;;;2.28;;
14734;SDS011;7458;49.002;8.472;2023-02-26T18:37:55;1.67;;;1.50;;
14734;SDS011;7458;49.002;8.472;2023-02-26T18:40:22;2.42;;;1.88;;
14734;SDS011;7458;49.002;8.472;2023-02-26T18:42:51;2.50;;;1.80;;